createdAt,value
2019-02-02T00:00:23.330Z,35.23
2019-02-02T00:02:54.969Z,34.50
2019-02-02T00:05:25.339Z,34.00
2019-02-02T00:07:55.787Z,34.05
2019-02-02T00:10:26.115Z,34.15
2019-02-02T00:12:56.330Z,33.65
2019-02-02T00:15:26.665Z,33.05
2019-02-02T00:17:56.967Z,32.50
2019-02-02T00:20:27.310Z,33.50
2019-02-02T00:22:57.549Z,32.30
2019-02-02T00:25:27.889Z,31.07
2019-02-02T00:27:58.329Z,32.78
2019-02-02T00:30:28.596Z,31.25
2019-02-02T00:32:59.753Z,31.50
2019-02-02T00:35:30.045Z,30.23
2019-02-02T00:38:00.340Z,30.77
2019-02-02T00:40:30.593Z,29.45
2019-02-02T00:43:01.927Z,30.65
2019-02-02T00:45:32.166Z,30.48
2019-02-02T00:48:02.391Z,29.65
2019-02-02T00:50:32.655Z,29.25
2019-02-02T00:53:03.020Z,30.77
2019-02-02T00:55:33.343Z,29.25
2019-02-02T00:58:03.650Z,27.77
2019-02-02T01:00:33.908Z,28.55
2019-02-02T01:03:04.218Z,28.02
2019-02-02T01:05:34.475Z,27.73
2019-02-02T01:08:04.863Z,28.12
2019-02-02T01:10:38.704Z,27.58
2019-02-02T01:13:09.007Z,27.00
2019-02-02T01:15:40.382Z,26.80
2019-02-02T01:18:10.702Z,27.73
2019-02-02T01:20:40.940Z,26.55
2019-02-02T01:23:11.358Z,25.30
2019-02-02T01:25:41.564Z,25.68
2019-02-02T01:28:11.884Z,26.57
2019-02-02T01:30:42.090Z,25.62
2019-02-02T01:33:12.499Z,25.15
2019-02-02T01:35:42.784Z,25.25
2019-02-02T01:38:13.078Z,24.82
2019-02-02T01:40:43.299Z,26.02
2019-02-02T01:43:13.679Z,24.55
2019-02-02T01:45:43.945Z,23.52
2019-02-02T01:48:14.194Z,24.12
2019-02-02T01:50:44.485Z,23.80
2019-02-02T01:53:14.713Z,24.35
2019-02-02T01:55:45.001Z,23.38
2019-02-02T01:58:16.985Z,23.42
2019-02-02T02:00:47.254Z,22.27
2019-02-02T02:03:17.464Z,22.20
2019-02-02T02:05:47.735Z,22.50
2019-02-02T02:08:17.960Z,23.65
2019-02-02T02:10:48.249Z,22.02
2019-02-02T02:13:18.496Z,22.70
2019-02-02T02:15:48.905Z,20.50
2019-02-02T02:18:19.375Z,21.73
2019-02-02T02:20:49.578Z,20.60
2019-02-02T02:23:19.803Z,20.82
2019-02-02T02:25:50.060Z,21.65
2019-02-02T02:28:27.812Z,21.17
2019-02-02T02:30:52.407Z,21.05
2019-02-02T02:33:22.663Z,20.57
2019-02-02T02:35:53.075Z,20.37
2019-02-02T02:38:23.372Z,20.23
2019-02-02T02:40:53.583Z,20.02
2019-02-02T02:43:23.843Z,19.57
2019-02-02T02:45:54.075Z,20.40
2019-02-02T02:48:24.379Z,19.85
2019-02-02T02:50:54.987Z,19.65
2019-02-02T02:53:25.281Z,19.25
2019-02-02T02:55:55.729Z,17.52
2019-02-02T02:58:40.471Z,18.00
2019-02-02T03:01:00.394Z,18.25
2019-02-02T03:03:30.590Z,17.57
2019-02-02T03:06:00.963Z,18.17
2019-02-02T03:08:31.192Z,17.45
2019-02-02T03:11:01.694Z,17.87
2019-02-02T03:13:31.910Z,17.80
2019-02-02T03:16:08.586Z,16.85
2019-02-02T03:18:38.856Z,18.17
2019-02-02T03:21:09.149Z,16.95
2019-02-02T03:23:39.379Z,16.97
2019-02-02T03:26:09.715Z,17.02
2019-02-02T03:28:39.947Z,16.42
2019-02-02T03:31:10.132Z,16.55
2019-02-02T03:33:40.492Z,16.23
2019-02-02T03:36:10.753Z,16.32
2019-02-02T03:38:41.080Z,16.62
2019-02-02T03:41:12.319Z,16.32
2019-02-02T03:43:42.630Z,15.72
2019-02-02T03:46:12.892Z,16.02
2019-02-02T03:48:44.262Z,15.80
2019-02-02T03:51:14.501Z,15.32
2019-02-02T03:53:45.471Z,15.38
2019-02-02T03:56:15.712Z,19.40
2019-02-02T03:58:47.152Z,22.42
2019-02-02T04:01:17.412Z,31.75
2019-02-02T04:03:47.777Z,39.05
2019-02-02T04:06:17.980Z,39.23
2019-02-02T04:08:48.269Z,32.15
2019-02-02T04:11:18.613Z,28.47
2019-02-02T04:13:48.888Z,30.30
2019-02-02T04:16:19.250Z,29.60
2019-02-02T04:18:49.452Z,31.15
2019-02-02T04:21:19.741Z,30.72
2019-02-02T04:23:49.987Z,29.45
2019-02-02T04:26:20.227Z,29.32
2019-02-02T04:28:50.556Z,29.57
2019-02-02T04:31:20.809Z,30.68
2019-02-02T04:33:51.061Z,30.65
2019-02-02T04:36:21.358Z,29.55
2019-02-02T04:38:51.599Z,30.95
2019-02-02T04:41:21.896Z,30.32
2019-02-02T04:43:52.135Z,29.50
2019-02-02T04:46:22.390Z,31.25
2019-02-02T04:48:52.908Z,29.20
2019-02-02T04:51:23.164Z,29.40
2019-02-02T04:53:57.986Z,29.12
2019-02-02T04:56:27.779Z,30.50
2019-02-02T04:58:58.012Z,30.05
2019-02-02T05:01:28.346Z,28.52
2019-02-02T05:03:58.579Z,28.40
2019-02-02T05:06:29.229Z,28.32
2019-02-02T05:09:01.025Z,27.93
2019-02-02T05:11:31.886Z,29.02
2019-02-02T05:14:02.431Z,29.42
2019-02-02T05:16:32.740Z,28.02
2019-02-02T05:19:02.981Z,27.48
2019-02-02T05:21:33.358Z,28.60
2019-02-02T05:24:03.676Z,27.67
2019-02-02T05:26:33.985Z,26.37
2019-02-02T05:29:04.329Z,26.82
2019-02-02T05:31:34.906Z,27.45
2019-02-02T05:34:05.182Z,26.95
2019-02-02T05:36:35.475Z,27.10
2019-02-02T05:39:08.810Z,26.57
2019-02-02T05:41:39.263Z,25.35
2019-02-02T05:44:09.537Z,25.75
2019-02-02T05:46:39.843Z,25.92
2019-02-02T05:49:10.130Z,26.30
2019-02-02T05:51:42.772Z,24.87
2019-02-02T05:54:13.117Z,24.90
2019-02-02T05:56:45.769Z,25.68
2019-02-02T05:59:16.044Z,23.95
2019-02-02T06:01:49.388Z,24.35
2019-02-02T06:04:19.621Z,23.45
2019-02-02T06:06:49.887Z,24.30
2019-02-02T06:09:22.797Z,22.80
2019-02-02T06:11:52.239Z,23.02
2019-02-02T06:14:22.506Z,22.93
2019-02-02T06:16:52.739Z,25.02
2019-02-02T06:19:22.973Z,23.77
2019-02-02T06:21:53.275Z,23.83
2019-02-02T06:24:23.742Z,25.27
2019-02-02T06:26:54.003Z,24.75
2019-02-02T06:29:24.301Z,25.12
2019-02-02T06:31:54.571Z,24.12
2019-02-02T06:34:24.900Z,25.08
2019-02-02T06:36:55.179Z,25.23
2019-02-02T06:39:25.459Z,26.52
2019-02-02T06:41:55.859Z,25.55
2019-02-02T06:44:26.067Z,26.95
2019-02-02T06:46:56.378Z,27.48
2019-02-02T06:49:26.705Z,27.77
2019-02-02T06:51:57.093Z,27.30
2019-02-02T06:54:30.740Z,28.42
2019-02-02T06:56:59.294Z,27.67
2019-02-02T06:59:29.571Z,28.55
2019-02-02T07:01:59.896Z,28.60
2019-02-02T07:04:31.352Z,29.23
2019-02-02T07:07:02.836Z,28.05
2019-02-02T07:09:34.083Z,29.82
2019-02-02T07:12:04.543Z,28.95
2019-02-02T07:14:36.068Z,29.77
2019-02-02T07:17:06.380Z,29.42
2019-02-02T07:19:36.843Z,31.05
2019-02-02T07:22:07.484Z,30.20
2019-02-02T07:24:37.782Z,29.60
2019-02-02T07:27:08.590Z,29.72
2019-02-02T07:29:39.000Z,29.30
2019-02-02T07:32:10.266Z,29.82
2019-02-02T07:34:40.585Z,29.85
2019-02-02T07:37:11.731Z,29.18
2019-02-02T07:39:41.985Z,29.87
2019-02-02T07:42:13.840Z,29.40
2019-02-02T07:44:45.473Z,28.95
2019-02-02T07:47:15.955Z,28.95
2019-02-02T07:49:46.220Z,24.70
2019-02-02T07:52:16.485Z,26.57
2019-02-02T07:54:46.785Z,25.97
2019-02-02T07:57:17.479Z,26.68
2019-02-02T07:59:48.150Z,26.17
2019-02-02T08:02:18.663Z,24.75
2019-02-02T08:04:49.354Z,25.62
2019-02-02T08:07:20.180Z,25.60
2019-02-02T08:09:50.463Z,25.23
2019-02-02T08:12:20.761Z,25.32
2019-02-02T08:14:52.568Z,25.35
2019-02-02T08:17:24.216Z,25.25
2019-02-02T08:19:58.285Z,24.67
2019-02-02T08:22:28.682Z,24.92
2019-02-02T08:24:58.954Z,24.27
2019-02-02T08:27:29.357Z,25.10
2019-02-02T08:29:59.835Z,21.90
2019-02-02T08:32:30.928Z,18.62
2019-02-02T08:35:01.291Z,17.82
2019-02-02T08:37:31.653Z,18.42
2019-02-02T08:40:01.943Z,19.45
2019-02-02T08:42:33.604Z,20.65
2019-02-02T08:45:04.363Z,19.52
2019-02-02T08:47:34.603Z,19.75
2019-02-02T08:50:05.913Z,19.95
2019-02-02T08:52:36.221Z,19.52
2019-02-02T08:55:08.592Z,20.08
2019-02-02T08:57:40.956Z,19.52
2019-02-02T09:00:16.805Z,19.52
2019-02-02T09:02:47.040Z,18.37
2019-02-02T09:05:18.617Z,18.55
2019-02-02T09:07:48.851Z,19.23
2019-02-02T09:10:21.497Z,18.90
2019-02-02T09:12:53.327Z,18.90
2019-02-02T09:15:23.602Z,18.65
2019-02-02T09:17:56.769Z,18.23
2019-02-02T09:20:26.983Z,18.70
2019-02-02T09:23:06.060Z,18.48
2019-02-02T09:25:30.316Z,18.37
2019-02-02T09:28:00.637Z,16.95
2019-02-02T09:30:33.250Z,17.62
2019-02-02T09:33:03.583Z,18.45
2019-02-02T09:35:35.350Z,17.55
2019-02-02T09:38:06.285Z,17.50
2019-02-02T09:40:39.504Z,17.75
2019-02-02T09:43:09.742Z,16.52
2019-02-02T09:45:39.977Z,17.75
2019-02-02T09:48:10.492Z,16.55
2019-02-02T09:50:40.835Z,16.73
2019-02-02T09:53:11.495Z,16.80
2019-02-02T09:55:41.965Z,16.62
2019-02-02T09:58:12.895Z,16.67
2019-02-02T10:00:43.173Z,17.50
2019-02-02T10:03:13.562Z,16.75
2019-02-02T10:05:43.822Z,16.37
2019-02-02T10:08:14.097Z,17.00
2019-02-02T10:10:44.742Z,16.73
2019-02-02T10:13:16.526Z,15.38
2019-02-02T10:15:46.754Z,15.58
2019-02-02T10:18:17.053Z,15.93
2019-02-02T10:20:47.667Z,15.30
2019-02-02T10:23:17.945Z,15.23
2019-02-02T10:25:48.250Z,16.52
2019-02-02T10:28:18.563Z,16.80
2019-02-02T10:30:48.838Z,15.15
2019-02-02T10:33:19.165Z,16.30
2019-02-02T10:35:49.758Z,15.28
2019-02-02T10:38:20.327Z,15.40
2019-02-02T10:40:50.710Z,15.32
2019-02-02T10:43:21.289Z,14.85
2019-02-02T10:45:51.558Z,14.87
2019-02-02T10:48:22.536Z,14.60
2019-02-02T10:50:52.788Z,15.13
2019-02-02T10:53:23.099Z,14.75
2019-02-02T10:55:53.393Z,14.15
2019-02-02T10:58:23.715Z,13.50
2019-02-02T11:00:54.305Z,14.38
2019-02-02T11:03:26.371Z,14.03
2019-02-02T11:05:56.885Z,14.38
2019-02-02T11:08:27.160Z,15.25
2019-02-02T11:10:57.772Z,14.33
2019-02-02T11:13:30.502Z,14.07
2019-02-02T11:16:08.944Z,13.85
2019-02-02T11:18:39.450Z,13.28
2019-02-02T11:21:09.741Z,13.03
2019-02-02T11:23:40.379Z,14.75
2019-02-02T11:26:11.053Z,13.80
2019-02-02T11:28:41.395Z,14.30
2019-02-02T11:31:11.678Z,13.38
2019-02-02T11:33:44.306Z,13.78
2019-02-02T11:36:13.942Z,13.22
2019-02-02T11:38:44.087Z,13.05
2019-02-02T11:41:14.429Z,13.53
2019-02-02T11:43:44.902Z,13.35
2019-02-02T11:46:17.875Z,12.85
2019-02-02T11:48:48.121Z,13.18
2019-02-02T11:51:18.333Z,12.78
2019-02-02T11:53:48.627Z,13.83
2019-02-02T11:56:20.439Z,12.98
2019-02-02T11:58:50.703Z,12.43
2019-02-02T12:01:20.926Z,12.68
2019-02-02T12:03:51.247Z,12.70
2019-02-02T12:06:21.563Z,12.70
2019-02-02T12:08:51.891Z,12.33
2019-02-02T12:11:24.209Z,12.33
2019-02-02T12:13:54.503Z,12.55
2019-02-02T12:16:24.759Z,12.40
2019-02-02T12:18:57.310Z,12.23
2019-02-02T12:21:27.581Z,12.45
2019-02-02T12:23:58.127Z,12.65
2019-02-02T12:26:31.201Z,12.05
2019-02-02T12:29:02.411Z,12.13
2019-02-02T12:31:32.803Z,10.80
2019-02-02T12:34:03.214Z,11.33
2019-02-02T12:36:34.698Z,11.45
2019-02-02T12:39:06.830Z,11.12
2019-02-02T12:41:37.099Z,12.53
2019-02-02T12:44:08.434Z,11.68
2019-02-02T12:46:38.965Z,11.30
2019-02-02T12:49:09.256Z,11.30
2019-02-02T12:51:41.256Z,11.05
2019-02-02T12:54:11.669Z,11.25
2019-02-02T12:56:42.107Z,10.72
2019-02-02T12:59:12.420Z,11.03
2019-02-02T13:01:42.659Z,10.75
2019-02-02T13:04:12.932Z,11.85
2019-02-02T13:06:43.236Z,11.48
2019-02-02T13:09:13.434Z,11.12
2019-02-02T13:11:43.837Z,10.45
2019-02-02T13:14:14.015Z,11.12
2019-02-02T13:16:44.266Z,10.40
2019-02-02T13:19:14.557Z,10.75
2019-02-02T13:21:44.874Z,11.00
2019-02-02T13:24:15.219Z,10.25
2019-02-02T13:26:45.836Z,10.82
2019-02-02T13:29:16.105Z,10.00
2019-02-02T13:31:46.386Z,10.10
2019-02-02T13:34:16.681Z,11.10
2019-02-02T13:36:46.941Z,10.45
2019-02-02T13:39:17.253Z,10.20
2019-02-02T13:41:50.523Z,10.08
2019-02-02T13:44:20.794Z,10.05
2019-02-02T13:46:51.137Z,10.45
2019-02-02T13:49:21.435Z,10.05
2019-02-02T13:51:51.713Z,9.40
2019-02-02T13:54:21.984Z,9.55
2019-02-02T13:56:55.379Z,9.85
2019-02-02T13:59:25.558Z,9.63
2019-02-02T14:01:55.855Z,9.35
2019-02-02T14:04:26.105Z,10.50
2019-02-02T14:06:56.395Z,9.58
2019-02-02T14:09:26.651Z,9.58
2019-02-02T14:11:56.937Z,9.10
2019-02-02T14:14:27.145Z,8.90
2019-02-02T14:16:57.701Z,9.43
2019-02-02T14:19:27.978Z,10.38
2019-02-02T14:21:58.344Z,9.38
2019-02-02T14:24:28.642Z,9.73
2019-02-02T14:26:58.937Z,9.40
2019-02-02T14:29:29.405Z,9.68
2019-02-02T14:31:59.657Z,9.03
2019-02-02T14:34:39.858Z,10.15
2019-02-02T14:37:01.818Z,8.83
2019-02-02T14:39:32.046Z,9.05
2019-02-02T14:42:02.320Z,8.78
2019-02-02T14:44:32.628Z,9.65
2019-02-02T14:47:02.933Z,9.20
2019-02-02T14:49:33.383Z,9.25
2019-02-02T14:52:06.024Z,8.63
2019-02-02T14:54:36.285Z,8.78
2019-02-02T14:57:06.612Z,9.13
2019-02-02T14:59:36.920Z,9.05
2019-02-02T15:02:07.169Z,9.05
2019-02-02T15:04:37.424Z,7.70
2019-02-02T15:07:07.655Z,8.65
2019-02-02T15:09:37.969Z,8.35
2019-02-02T15:12:08.127Z,8.88
2019-02-02T15:14:38.389Z,8.65
2019-02-02T15:17:08.656Z,8.93
2019-02-02T15:19:38.883Z,8.43
2019-02-02T15:22:09.150Z,8.58
2019-02-02T15:24:39.387Z,8.03
2019-02-02T15:27:09.651Z,8.13
2019-02-02T15:29:42.224Z,8.23
2019-02-02T15:32:15.183Z,8.53
2019-02-02T15:34:48.235Z,7.95
2019-02-02T15:37:18.525Z,8.18
2019-02-02T15:39:48.808Z,8.30
2019-02-02T15:42:19.074Z,8.15
2019-02-02T15:44:49.604Z,7.78
2019-02-02T15:47:19.852Z,7.85
2019-02-02T15:49:50.678Z,7.90
2019-02-02T15:52:21.055Z,7.87
2019-02-02T15:54:52.682Z,7.42
2019-02-02T15:57:23.045Z,7.92
2019-02-02T15:59:53.299Z,8.23
2019-02-02T16:02:23.666Z,7.75
2019-02-02T16:04:53.938Z,7.30
2019-02-02T16:07:25.306Z,8.18
2019-02-02T16:09:55.615Z,7.12
2019-02-02T16:12:25.924Z,7.53
2019-02-02T16:14:56.253Z,8.28
2019-02-02T16:17:26.469Z,7.65
2019-02-02T16:19:56.689Z,7.45
2019-02-02T16:22:27.027Z,7.42
2019-02-02T16:24:57.347Z,7.28
2019-02-02T16:27:28.731Z,7.55
2019-02-02T16:29:59.057Z,7.12
2019-02-02T16:32:29.301Z,7.72
2019-02-02T16:34:59.479Z,6.70
2019-02-02T16:37:29.623Z,7.40
2019-02-02T16:39:59.864Z,7.47
2019-02-02T16:42:30.179Z,7.70
2019-02-02T16:45:01.459Z,7.20
2019-02-02T16:47:31.750Z,7.30
2019-02-02T16:50:02.381Z,6.80
2019-02-02T16:52:35.042Z,7.12
2019-02-02T16:55:06.457Z,7.70
2019-02-02T16:57:36.765Z,7.20
2019-02-02T17:00:09.303Z,7.20
2019-02-02T17:02:39.558Z,6.33
2019-02-02T17:05:10.367Z,6.92
2019-02-02T17:07:40.663Z,6.20
2019-02-02T17:10:13.911Z,6.65
2019-02-02T17:12:45.317Z,6.90
2019-02-02T17:15:15.529Z,6.85
2019-02-02T17:17:45.911Z,6.67
2019-02-02T17:20:21.492Z,6.37
2019-02-02T17:22:51.847Z,6.80
2019-02-02T17:25:23.057Z,6.65
2019-02-02T17:27:53.433Z,6.70
2019-02-02T17:30:24.170Z,6.60
2019-02-02T17:32:55.875Z,6.28
2019-02-02T17:35:26.179Z,6.85
2019-02-02T17:37:56.387Z,7.03
2019-02-02T17:40:27.919Z,6.28
2019-02-02T17:42:58.248Z,6.35
2019-02-02T17:45:30.232Z,6.67
2019-02-02T17:48:00.494Z,6.42
2019-02-02T17:50:30.694Z,6.80
2019-02-02T17:53:00.969Z,6.53
2019-02-02T17:55:31.782Z,6.60
2019-02-02T17:58:02.262Z,6.20
2019-02-02T18:00:42.816Z,6.58
2019-02-02T18:03:13.167Z,7.37
2019-02-02T18:05:43.480Z,7.05
2019-02-02T18:08:13.871Z,7.42
2019-02-02T18:10:44.706Z,7.22
2019-02-02T18:13:14.987Z,8.20
2019-02-02T18:15:45.445Z,8.95
2019-02-02T18:18:17.891Z,9.45
2019-02-02T18:20:48.275Z,10.10
2019-02-02T18:23:18.775Z,10.68
2019-02-02T18:25:49.196Z,10.78
2019-02-02T18:28:19.939Z,11.20
2019-02-02T18:30:51.220Z,12.15
2019-02-02T18:33:21.571Z,12.37
2019-02-02T18:35:51.890Z,12.63
2019-02-02T18:38:23.850Z,13.70
2019-02-02T18:40:54.389Z,12.78
2019-02-02T18:43:24.659Z,12.70
2019-02-02T18:45:55.082Z,13.28
2019-02-02T18:48:25.340Z,13.45
2019-02-02T18:50:56.097Z,14.65
2019-02-02T18:53:26.431Z,15.72
2019-02-02T18:56:07.457Z,17.48
2019-02-02T18:58:37.736Z,16.85
2019-02-02T19:01:08.097Z,17.20
2019-02-02T19:03:38.379Z,18.60
2019-02-02T19:06:08.683Z,18.20
2019-02-02T19:08:39.136Z,21.00
2019-02-02T19:11:09.841Z,19.55
2019-02-02T19:13:40.081Z,19.95
2019-02-02T19:16:10.488Z,19.30
2019-02-02T19:18:40.867Z,22.25
2019-02-02T19:21:11.348Z,22.70
2019-02-02T19:23:41.716Z,21.95
2019-02-02T19:26:12.028Z,25.45
2019-02-02T19:28:42.231Z,27.27
2019-02-02T19:31:14.692Z,28.15
2019-02-02T19:33:45.049Z,27.75
2019-02-02T19:36:15.390Z,27.22
2019-02-02T19:38:46.104Z,28.27
2019-02-02T19:41:16.838Z,30.92
2019-02-02T19:43:47.137Z,31.45
2019-02-02T19:46:17.454Z,31.97
2019-02-02T19:48:49.200Z,32.58
2019-02-02T19:51:19.456Z,34.48
2019-02-02T19:53:49.952Z,33.73
2019-02-02T19:56:20.235Z,32.73
2019-02-02T19:58:50.458Z,32.53
2019-02-02T20:01:20.805Z,34.88
2019-02-02T20:03:51.113Z,35.38
2019-02-02T20:06:21.410Z,36.42
2019-02-02T20:08:53.312Z,35.58
2019-02-02T20:11:23.585Z,33.67
2019-02-02T20:13:54.961Z,36.05
2019-02-02T20:16:25.175Z,36.15
2019-02-02T20:18:55.743Z,37.25
2019-02-02T20:21:26.036Z,36.10
2019-02-02T20:23:56.506Z,35.80
2019-02-02T20:26:27.132Z,36.03
2019-02-02T20:28:57.799Z,38.83
2019-02-02T20:31:28.575Z,41.15
2019-02-02T20:33:59.307Z,50.17
2019-02-02T20:36:35.166Z,51.68
2019-02-02T20:39:09.272Z,55.73
2019-02-02T20:41:40.473Z,51.35
2019-02-02T20:44:12.301Z,58.48
2019-02-02T20:46:43.887Z,62.23
2019-02-02T20:49:17.285Z,78.22
2019-02-02T20:51:53.232Z,81.92
2019-02-02T20:54:23.661Z,87.15
2019-02-02T20:56:54.062Z,91.00
2019-02-02T20:59:24.302Z,100.07
2019-02-02T21:01:54.728Z,96.50
2019-02-02T21:04:24.999Z,96.53
2019-02-02T21:06:55.687Z,94.35
2019-02-02T21:09:25.966Z,90.70
2019-02-02T21:11:57.333Z,89.10
2019-02-02T21:14:27.806Z,88.10
2019-02-02T21:16:58.034Z,82.65
2019-02-02T21:19:28.516Z,84.72
2019-02-02T21:21:58.790Z,83.95
2019-02-02T21:24:30.067Z,80.53
2019-02-02T21:27:00.450Z,80.22
2019-02-02T21:29:32.308Z,79.20
2019-02-02T21:32:03.681Z,76.67
2019-02-02T21:34:33.972Z,74.03
2019-02-02T21:37:04.249Z,72.47
2019-02-02T21:39:34.750Z,72.55
2019-02-02T21:42:05.079Z,71.95
2019-02-02T21:44:42.759Z,75.62
2019-02-02T21:47:07.555Z,81.20
2019-02-02T21:49:37.779Z,77.42
2019-02-02T21:52:08.495Z,79.67
2019-02-02T21:54:38.778Z,86.10
2019-02-02T21:57:09.171Z,87.78
2019-02-02T21:59:39.537Z,87.67
2019-02-02T22:02:09.838Z,89.10
2019-02-02T22:04:41.464Z,84.30
2019-02-02T22:07:14.813Z,87.05
2019-02-02T22:09:45.046Z,84.28
2019-02-02T22:12:15.468Z,82.97
2019-02-02T22:14:45.795Z,79.60
2019-02-02T22:17:16.121Z,78.85
2019-02-02T22:19:46.825Z,77.00
2019-02-02T22:22:17.423Z,76.17
2019-02-02T22:24:47.825Z,75.50
2019-02-02T22:27:18.039Z,73.97
2019-02-02T22:29:48.258Z,71.97
2019-02-02T22:32:18.897Z,73.00
2019-02-02T22:34:49.210Z,74.65
2019-02-02T22:37:21.002Z,71.35
2019-02-02T22:39:51.248Z,71.92
2019-02-02T22:42:21.530Z,71.45
2019-02-02T22:44:52.007Z,68.65
2019-02-02T22:47:22.353Z,69.07
2019-02-02T22:49:54.652Z,68.50
2019-02-02T22:52:24.947Z,68.62
2019-02-02T22:54:55.281Z,69.90
2019-02-02T22:57:25.524Z,77.27
2019-02-02T22:59:55.962Z,76.67
2019-02-02T23:02:27.344Z,83.40
2019-02-02T23:05:41.645Z,79.35
2019-02-02T23:08:44.720Z,80.40
2019-02-02T23:11:24.163Z,79.27
2019-02-02T23:14:44.609Z,77.30
2019-02-02T23:17:14.905Z,76.12
2019-02-02T23:19:45.165Z,76.28
2019-02-02T23:22:15.416Z,76.22
2019-02-02T23:24:45.724Z,79.62
2019-02-02T23:27:16.043Z,78.17
2019-02-02T23:29:46.271Z,72.80
2019-02-02T23:32:16.518Z,71.53
2019-02-02T23:34:46.816Z,73.85
2019-02-02T23:37:18.217Z,72.12
2019-02-02T23:39:48.446Z,72.65
2019-02-02T23:42:18.784Z,70.20
2019-02-02T23:44:49.007Z,71.33
2019-02-02T23:47:19.757Z,72.15
2019-02-02T23:49:50.208Z,70.95
2019-02-02T23:52:20.392Z,70.05
2019-02-02T23:54:50.636Z,70.70
2019-02-02T23:57:23.794Z,67.20
2019-02-02T23:59:54.539Z,69.30
